Weather - Helsinki Query any day in the database

Current weather  

Weather data for a selected day (2006-01-01 -2020-12-04)
Enter date:     <-     scroll days         ->
day curves
Low temperature°C -2.023:50
High temperature°C 0.016:20
Low wind chill°C -9.306:50
Average temperature°C -1.4 
High wind speed (10 min) m/s 9.006:50
Low pressurehPa 958.004:20
High pressurehPa 982.023:50
Low R.H% 8600:50
High R.H% 10023:50
Day weather data as a table
Date Time Temp
°C
Chill
°C
Pressure
hPA
Wind
m/s
Hum
%
Precip
mm
2008-11-24 23:50:00 -2.0  -5.9  982.0 3.0 100 -
2008-11-24 23:20:00 -2.0  -4.8  982.0 2.0 100 -
2008-11-24 22:50:00 -2.0  -5.9  981.0 3.0 100 -
2008-11-24 22:20:00 -2.0  -5.9  980.0 3.0 100 -
2008-11-24 21:50:00 -2.0  -5.9  979.0 3.0 100 -
2008-11-24 21:20:00 -1.0  -5.5  978.0 4.0 100 -
2008-11-24 20:50:00 -1.0  -4.7  978.0 3.0 100 -
2008-11-24 20:20:00 -1.0  -4.7  977.0 3.0 100 -
2008-11-24 19:50:00 -1.0  -4.7  976.0 3.0 100 -
2008-11-24 19:20:00 -1.0  -4.7  975.0 3.0 100 -
2008-11-24 18:50:00 -1.0  -4.7  974.0 3.0 100 -
2008-11-24 18:20:00 -1.0  -5.5  974.0 4.0 100 -
2008-11-24 17:50:00 -1.0  -4.7  973.0 3.0 100 -
2008-11-24 17:20:00 -1.0  -5.5  972.0 4.0 100 -
2008-11-24 16:50:00 -1.0  -5.5  972.0 4.0 100 -
2008-11-24 16:20:00 0.0  -4.9  971.0 5.0 86 -
2008-11-24 15:50:00 -1.0  -6.7  970.0 6.0 100 -
2008-11-24 15:20:00 -1.0  -6.2  970.0 5.0 100 -
2008-11-24 14:50:00 -1.0  -6.2  969.0 5.0 92 -
2008-11-24 14:20:00 -1.0  -6.7  968.0 6.0 92 -
2008-11-24 13:50:00 -1.0  -6.7  968.0 6.0 92 -
2008-11-24 13:20:00 -1.0  -7.2  967.0 7.0 92 -
2008-11-24 12:50:00 -1.0  -6.7  967.0 6.0 92 -
2008-11-24 12:20:00 -1.0  -7.2  966.0 7.0 92 -
2008-11-24 11:50:00 -1.0  -7.2  966.0 7.0 86 -
2008-11-24 11:20:00 -1.0  -7.2  966.0 7.0 86 -
2008-11-24 10:50:00 -1.0  -7.6  965.0 8.0 86 -
2008-11-24 10:20:00 -1.0  -7.6  965.0 8.0 86 -
2008-11-24 09:50:00 -2.0  -8.9  964.0 8.0 86 -
2008-11-24 09:20:00 -2.0  -8.5  964.0 7.0 86 -
2008-11-24 08:50:00 -2.0  -8.9  963.0 8.0 86 -
2008-11-24 08:20:00 -2.0  -8.9  963.0 8.0 86 -
2008-11-24 07:50:00 -2.0  -8.9  962.0 8.0 92 -
2008-11-24 07:20:00 -2.0  -8.9  961.0 8.0 92 -
2008-11-24 06:50:00 -2.0  -9.3  961.0 9.0 92 -
2008-11-24 06:20:00 -2.0  -9.3  960.0 9.0 92 -
2008-11-24 05:50:00 -2.0  -8.9  960.0 8.0 92 -
2008-11-24 05:20:00 -2.0  -8.9  959.0 8.0 92 -
2008-11-24 04:50:00 -2.0  -8.9  959.0 8.0 92 -
2008-11-24 04:20:00 -2.0  -8.9  958.0 8.0 92 -
2008-11-24 03:50:00 -1.0  -7.6  958.0 8.0 86 -
2008-11-24 03:20:00 -1.0  -7.6  958.0 8.0 86 -
2008-11-24 02:50:00 -1.0  -7.6  958.0 8.0 86 -
2008-11-24 02:20:00 -1.0  -7.6  958.0 8.0 86 -
2008-11-24 01:50:00 -2.0  -8.9  958.0 8.0 92 -
2008-11-24 01:20:00 -1.0  -7.6  958.0 8.0 86 -
2008-11-24 00:50:00 -1.0  -8.0  958.0 9.0 86 -
2008-11-24 00:20:00 -1.0  -7.6  958.0 8.0 92 -
Unit conversions: